createdAt,value
2023-02-14T00:00:53.584Z,1.90
2023-02-14T00:03:21.346Z,1.90
2023-02-14T00:05:49.365Z,1.90
2023-02-14T00:08:18.454Z,1.90
2023-02-14T00:10:46.200Z,1.90
2023-02-14T00:13:13.973Z,1.90
2023-02-14T00:15:40.818Z,1.90
2023-02-14T00:18:08.664Z,2.00
2023-02-14T00:20:36.906Z,2.00
2023-02-14T00:23:04.678Z,2.10
2023-02-14T00:25:34.974Z,2.20
2023-02-14T00:28:02.744Z,2.20
2023-02-14T00:30:30.784Z,2.20
2023-02-14T00:32:58.617Z,2.30
2023-02-14T00:35:26.390Z,2.30
2023-02-14T00:37:54.437Z,2.30
2023-02-14T00:40:22.356Z,2.20
2023-02-14T00:42:51.469Z,2.20
2023-02-14T00:45:20.356Z,2.20
2023-02-14T00:47:48.171Z,2.20
2023-02-14T00:50:15.984Z,2.20
2023-02-14T00:52:43.755Z,2.20
2023-02-14T00:55:11.533Z,2.10
2023-02-14T00:57:39.340Z,2.10
2023-02-14T01:00:10.199Z,2.10
2023-02-14T01:02:38.605Z,2.10
2023-02-14T01:05:07.099Z,2.10
2023-02-14T01:07:35.034Z,2.00
2023-02-14T01:10:02.820Z,2.00
2023-02-14T01:12:30.640Z,2.00
2023-02-14T01:14:58.579Z,2.00
2023-02-14T01:17:28.535Z,2.00
2023-02-14T01:19:56.466Z,2.00
2023-02-14T01:22:24.266Z,2.00
2023-02-14T01:24:52.120Z,1.90
2023-02-14T01:27:19.930Z,1.90
2023-02-14T01:29:47.811Z,1.80
2023-02-14T01:32:15.701Z,1.80
2023-02-14T01:34:44.834Z,1.90
2023-02-14T01:37:12.580Z,1.90
2023-02-14T01:39:40.503Z,1.90
2023-02-14T01:42:08.418Z,1.90
2023-02-14T01:44:59.544Z,1.90
2023-02-14T01:47:30.096Z,1.80
2023-02-14T01:50:02.575Z,1.80
2023-02-14T01:52:33.967Z,1.80
2023-02-14T01:55:06.471Z,1.80
2023-02-14T01:57:40.379Z,1.70
2023-02-14T02:00:27.326Z,1.70
2023-02-14T02:02:56.399Z,1.70
2023-02-14T02:05:25.714Z,1.70
2023-02-14T02:07:56.049Z,1.70
2023-02-14T02:10:23.891Z,1.60
2023-02-14T02:12:54.161Z,1.60
2023-02-14T02:15:26.381Z,1.60
2023-02-14T02:18:10.941Z,1.60
2023-02-14T02:21:14.609Z,1.60
2023-02-14T02:24:11.666Z,1.60
2023-02-14T02:27:19.794Z,1.60
2023-02-14T02:30:21.293Z,1.50
2023-02-14T02:33:19.347Z,1.50
2023-02-14T02:35:59.557Z,1.60
2023-02-14T02:38:44.986Z,1.50
2023-02-14T02:41:23.832Z,1.40
2023-02-14T02:43:57.212Z,1.40
2023-02-14T02:46:49.041Z,1.40
2023-02-14T02:49:44.736Z,1.30
2023-02-14T02:52:37.842Z,1.30
2023-02-14T02:55:12.712Z,1.40
2023-02-14T02:57:42.530Z,1.40
2023-02-14T03:00:14.364Z,1.40
2023-02-14T03:03:03.479Z,1.40
2023-02-14T03:05:33.039Z,1.40
2023-02-14T03:08:02.151Z,1.40
2023-02-14T03:10:34.078Z,1.30
2023-02-14T03:13:39.722Z,1.30
2023-02-14T03:16:34.040Z,1.40
2023-02-14T03:19:27.925Z,1.40
2023-02-14T03:21:58.942Z,1.40
2023-02-14T03:24:36.296Z,1.50
2023-02-14T03:27:11.120Z,1.50
2023-02-14T03:29:51.086Z,1.50
2023-02-14T03:32:26.145Z,1.50
2023-02-14T03:34:58.955Z,1.60
2023-02-14T03:37:30.870Z,1.60
2023-02-14T03:40:07.412Z,1.60
2023-02-14T03:42:39.750Z,1.60
2023-02-14T03:45:12.252Z,1.60
2023-02-14T03:47:43.304Z,1.60
2023-02-14T03:50:15.339Z,1.60
2023-02-14T03:52:44.677Z,1.60
2023-02-14T03:55:17.668Z,1.70
2023-02-14T03:57:53.053Z,1.60
2023-02-14T04:00:21.508Z,1.60
2023-02-14T04:02:54.102Z,1.70
2023-02-14T04:05:25.192Z,1.70
2023-02-14T04:07:54.808Z,1.70
2023-02-14T04:10:25.429Z,1.70
2023-02-14T04:12:54.448Z,1.70
2023-02-14T04:15:22.697Z,1.60
2023-02-14T04:18:07.936Z,1.50
2023-02-14T04:20:36.969Z,1.50
2023-02-14T04:23:04.877Z,1.60
2023-02-14T04:25:34.023Z,1.70
2023-02-14T04:28:01.804Z,1.60
2023-02-14T04:30:29.697Z,1.50
2023-02-14T04:32:57.531Z,1.50
2023-02-14T04:35:25.311Z,1.50
2023-02-14T04:37:53.049Z,1.50
2023-02-14T04:40:21.359Z,1.60
2023-02-14T04:42:50.450Z,1.60
2023-02-14T04:45:18.364Z,1.50
2023-02-14T04:47:46.464Z,1.40
2023-02-14T04:50:14.863Z,1.50
2023-02-14T04:52:42.680Z,1.50
2023-02-14T04:55:11.234Z,1.40
2023-02-14T04:57:39.291Z,1.40
2023-02-14T05:00:09.789Z,1.40
2023-02-14T05:02:37.901Z,1.40
2023-02-14T05:05:07.475Z,1.40
2023-02-14T05:07:35.238Z,1.40
2023-02-14T05:10:03.058Z,1.30
2023-02-14T05:12:30.923Z,1.30
2023-02-14T05:14:58.768Z,1.30
2023-02-14T05:17:27.871Z,1.40
2023-02-14T05:19:55.703Z,1.40
2023-02-14T05:22:23.491Z,1.40
2023-02-14T05:24:51.292Z,1.40
2023-02-14T05:27:19.092Z,1.30
2023-02-14T05:29:46.916Z,1.30
2023-02-14T05:32:14.724Z,1.30
2023-02-14T05:34:43.871Z,1.30
2023-02-14T05:37:11.660Z,1.30
2023-02-14T05:39:39.429Z,1.30
2023-02-14T05:44:35.065Z,1.20
2023-02-14T05:47:02.854Z,1.20
2023-02-14T05:49:30.649Z,1.20
2023-02-14T05:51:59.759Z,1.20
2023-02-14T05:54:27.609Z,1.20
2023-02-14T05:56:55.414Z,1.10
2023-02-14T05:59:23.408Z,1.10
2023-02-14T06:01:51.284Z,1.10
2023-02-14T06:04:19.134Z,1.00
2023-02-14T06:06:46.959Z,1.00
2023-02-14T06:09:16.171Z,1.00
2023-02-14T06:11:43.954Z,0.90
2023-02-14T06:14:11.733Z,1.00
2023-02-14T06:16:39.635Z,1.00
2023-02-14T06:19:07.532Z,1.10
2023-02-14T06:21:35.663Z,1.10
2023-02-14T06:24:03.831Z,1.10
2023-02-14T06:26:35.068Z,1.00
2023-02-14T06:29:04.085Z,1.00
2023-02-14T06:31:33.226Z,1.00
2023-02-14T06:34:01.105Z,1.00
2023-02-14T06:36:28.890Z,1.00
2023-02-14T06:38:56.729Z,1.10
2023-02-14T06:41:24.539Z,1.20
2023-02-14T06:43:53.686Z,1.20
2023-02-14T06:46:21.714Z,1.20
2023-02-14T06:48:49.506Z,1.20
2023-02-14T06:51:17.304Z,1.20
2023-02-14T06:53:45.096Z,1.20
2023-02-14T06:56:12.904Z,1.10
2023-02-14T06:58:40.713Z,1.10
2023-02-14T07:01:09.861Z,1.00
2023-02-14T07:03:37.626Z,1.00
2023-02-14T07:06:05.646Z,0.90
2023-02-14T07:08:33.427Z,0.90
2023-02-14T07:11:01.575Z,0.90
2023-02-14T07:13:29.566Z,0.90
2023-02-14T07:15:57.467Z,0.90
2023-02-14T07:18:26.633Z,0.90
2023-02-14T07:20:54.435Z,0.80
2023-02-14T07:23:22.223Z,0.90
2023-02-14T07:25:49.997Z,0.80
2023-02-14T07:28:17.760Z,0.80
2023-02-14T07:30:47.681Z,0.80
2023-02-14T07:33:15.599Z,0.80
2023-02-14T07:35:44.717Z,0.80
2023-02-14T07:38:12.475Z,0.90
2023-02-14T07:40:40.234Z,0.80
2023-02-14T07:43:08.063Z,0.80
2023-02-14T07:45:35.878Z,0.80
2023-02-14T07:48:04.152Z,0.80
2023-02-14T07:50:31.911Z,0.70
2023-02-14T07:53:00.993Z,0.70
2023-02-14T07:55:28.784Z,0.70
2023-02-14T07:57:56.568Z,0.80
2023-02-14T08:00:24.710Z,0.80
2023-02-14T08:02:52.481Z,0.70
2023-02-14T08:05:20.623Z,0.70
2023-02-14T08:07:48.580Z,0.80
2023-02-14T08:10:18.077Z,0.80
2023-02-14T08:13:01.081Z,0.70
2023-02-14T08:15:47.777Z,0.80
2023-02-14T08:18:15.631Z,0.80
2023-02-14T08:20:43.625Z,0.90
2023-02-14T08:23:11.691Z,0.90
2023-02-14T08:25:41.047Z,1.00
2023-02-14T08:28:09.175Z,1.00
2023-02-14T08:30:38.052Z,1.00
2023-02-14T08:33:06.221Z,1.00
2023-02-14T08:35:34.633Z,1.00
2023-02-14T08:38:02.470Z,1.00
2023-02-14T08:40:30.299Z,1.00
2023-02-14T08:42:59.417Z,1.10
2023-02-14T08:45:27.379Z,1.10
2023-02-14T08:47:55.227Z,1.10
2023-02-14T08:50:23.257Z,1.10
2023-02-14T08:52:51.019Z,1.10
2023-02-14T08:55:18.842Z,1.10
2023-02-14T08:57:46.604Z,1.20
2023-02-14T09:00:16.725Z,1.20
2023-02-14T09:02:44.509Z,1.20
2023-02-14T09:05:13.059Z,1.20
2023-02-14T09:07:40.859Z,1.10
2023-02-14T09:10:09.562Z,1.10
2023-02-14T09:12:40.018Z,1.10
2023-02-14T09:15:09.208Z,1.10
2023-02-14T09:17:38.891Z,1.20
2023-02-14T09:20:08.043Z,1.30
2023-02-14T09:22:35.808Z,1.30
2023-02-14T09:25:03.589Z,1.40
2023-02-14T09:27:32.208Z,1.50
2023-02-14T09:30:00.185Z,1.50
2023-02-14T09:32:29.140Z,1.40
2023-02-14T09:34:58.370Z,1.40
2023-02-14T09:37:26.137Z,1.40
2023-02-14T09:39:53.971Z,1.50
2023-02-14T09:42:37.774Z,1.50
2023-02-14T09:45:11.624Z,1.50
2023-02-14T09:47:45.271Z,1.50
2023-02-14T09:50:20.798Z,1.50
2023-02-14T09:52:56.372Z,1.50
2023-02-14T09:55:27.539Z,1.60
2023-02-14T09:58:15.908Z,1.60
2023-02-14T10:00:47.358Z,1.70
2023-02-14T10:03:49.687Z,1.70
2023-02-14T10:06:33.481Z,1.80
2023-02-14T10:09:09.822Z,1.80
2023-02-14T10:11:38.235Z,1.80
2023-02-14T10:14:12.306Z,1.90
2023-02-14T10:16:44.725Z,1.90
2023-02-14T10:19:20.359Z,1.80
2023-02-14T10:21:55.384Z,1.80
2023-02-14T10:24:28.172Z,1.80
2023-02-14T10:27:01.971Z,1.80
2023-02-14T10:29:30.207Z,1.80
2023-02-14T10:32:00.814Z,1.80
2023-02-14T10:34:38.456Z,1.90
2023-02-14T10:37:23.800Z,2.00
2023-02-14T10:40:07.812Z,1.90
2023-02-14T10:42:45.829Z,2.00
2023-02-14T10:45:21.250Z,2.10
2023-02-14T10:47:55.297Z,2.10
2023-02-14T10:50:29.695Z,2.20
2023-02-14T10:53:08.508Z,2.30
2023-02-14T10:55:44.761Z,2.20
2023-02-14T10:58:16.217Z,2.10
2023-02-14T11:00:54.063Z,2.20
2023-02-14T11:03:21.980Z,2.20
2023-02-14T11:05:51.073Z,2.20
2023-02-14T11:08:27.326Z,2.20
2023-02-14T11:11:00.936Z,2.20
2023-02-14T11:13:35.135Z,2.20
2023-02-14T11:16:05.979Z,2.20
2023-02-14T11:18:35.849Z,2.30
2023-02-14T11:21:10.811Z,2.40
2023-02-14T11:23:42.180Z,2.50
2023-02-14T11:26:16.360Z,2.50
2023-02-14T11:28:52.232Z,2.50
2023-02-14T11:31:32.325Z,2.60
2023-02-14T11:34:02.895Z,2.60
2023-02-14T11:36:32.398Z,2.70
2023-02-14T11:39:07.289Z,2.70
2023-02-14T11:41:49.772Z,2.70
2023-02-14T11:44:22.547Z,2.80
2023-02-14T11:46:53.355Z,2.90
2023-02-14T11:49:30.934Z,2.90
2023-02-14T11:52:00.352Z,2.90
2023-02-14T11:54:36.485Z,3.00
2023-02-14T11:57:07.505Z,3.00
2023-02-14T11:59:41.578Z,3.00
2023-02-14T12:02:24.763Z,3.10
2023-02-14T12:04:56.134Z,3.10
2023-02-14T12:07:28.361Z,3.10
2023-02-14T12:10:25.895Z,3.10
2023-02-14T12:12:57.043Z,3.20
2023-02-14T12:15:34.414Z,3.20
2023-02-14T12:18:25.533Z,3.20
2023-02-14T12:20:59.411Z,3.20
2023-02-14T12:23:36.935Z,3.10
2023-02-14T12:26:18.638Z,3.20
2023-02-14T12:28:52.118Z,3.20
2023-02-14T12:31:20.487Z,3.40
2023-02-14T12:33:50.440Z,3.50
2023-02-14T12:36:32.794Z,3.60
2023-02-14T12:39:08.860Z,3.60
2023-02-14T12:41:45.547Z,3.70
2023-02-14T12:44:22.282Z,3.70
2023-02-14T12:47:05.536Z,3.80
2023-02-14T12:49:56.983Z,3.70
2023-02-14T12:52:41.575Z,3.80
2023-02-14T12:55:46.550Z,3.80
2023-02-14T12:58:28.145Z,3.80
2023-02-14T13:01:08.005Z,3.90
2023-02-14T13:04:05.348Z,3.90
2023-02-14T13:06:35.730Z,3.90
2023-02-14T13:09:24.380Z,3.90
2023-02-14T13:12:03.754Z,4.00
2023-02-14T13:14:54.167Z,3.90
2023-02-14T13:17:34.700Z,4.00
2023-02-14T13:20:16.176Z,4.20
2023-02-14T13:22:44.682Z,4.40
2023-02-14T13:25:30.703Z,4.60
2023-02-14T13:27:59.710Z,4.80
2023-02-14T13:30:32.830Z,5.20
2023-02-14T13:33:04.961Z,5.90
2023-02-14T13:35:33.571Z,6.80
2023-02-14T13:38:06.086Z,7.60
2023-02-14T13:40:35.247Z,8.50
2023-02-14T13:43:03.757Z,9.00
2023-02-14T13:46:06.580Z,9.60
2023-02-14T13:48:34.545Z,11.10
2023-02-14T13:51:04.230Z,12.30
2023-02-14T13:53:38.620Z,13.40
2023-02-14T13:56:30.947Z,14.30
2023-02-14T13:59:00.984Z,15.00
2023-02-14T14:01:36.314Z,15.50
2023-02-14T14:04:06.596Z,15.80
2023-02-14T14:07:08.589Z,15.90
2023-02-14T14:09:55.507Z,16.10
2023-02-14T14:12:38.995Z,15.80
2023-02-14T14:15:27.551Z,15.20
2023-02-14T14:18:39.774Z,14.20
2023-02-14T14:21:17.437Z,13.00
2023-02-14T14:23:45.487Z,11.90
2023-02-14T14:26:36.366Z,11.00
2023-02-14T14:29:11.684Z,10.10
2023-02-14T14:31:41.626Z,9.30
2023-02-14T14:34:18.715Z,8.70
2023-02-14T14:36:46.656Z,8.20
2023-02-14T14:39:27.507Z,7.80
2023-02-14T14:41:55.572Z,7.30
2023-02-14T14:44:24.507Z,7.10
2023-02-14T14:46:52.304Z,6.80
2023-02-14T14:49:22.441Z,6.60
2023-02-14T14:51:50.410Z,6.40
2023-02-14T14:54:22.603Z,6.20
2023-02-14T14:56:52.837Z,6.10
2023-02-14T14:59:29.480Z,6.00
2023-02-14T15:01:57.419Z,5.80
2023-02-14T15:04:29.664Z,5.70
2023-02-14T15:06:58.714Z,5.60
2023-02-14T15:09:33.482Z,5.50
2023-02-14T15:12:21.275Z,5.40
2023-02-14T15:14:54.560Z,5.30
2023-02-14T15:17:25.921Z,5.20
2023-02-14T15:19:57.406Z,5.10
2023-02-14T15:22:27.485Z,5.00
2023-02-14T15:24:55.464Z,5.00
2023-02-14T15:27:25.422Z,4.90
2023-02-14T15:29:56.051Z,4.80
2023-02-14T15:32:25.138Z,4.70
2023-02-14T15:34:55.102Z,4.60
2023-02-14T15:37:25.345Z,4.50
2023-02-14T15:39:55.661Z,4.40
2023-02-14T15:42:27.564Z,4.40
2023-02-14T15:45:23.598Z,4.30
2023-02-14T15:47:54.722Z,4.20
2023-02-14T15:50:27.617Z,4.00
2023-02-14T15:52:57.303Z,4.00
2023-02-14T15:55:27.541Z,3.90
2023-02-14T15:57:58.240Z,3.80
2023-02-14T16:00:26.641Z,3.70
2023-02-14T16:02:57.330Z,3.60
2023-02-14T16:05:27.846Z,3.60
2023-02-14T16:08:03.357Z,3.50
2023-02-14T16:10:32.521Z,3.40
2023-02-14T16:13:04.002Z,3.30
2023-02-14T16:15:33.856Z,3.20
2023-02-14T16:18:06.896Z,3.10
2023-02-14T16:20:43.170Z,3.10
2023-02-14T16:23:20.109Z,3.00
2023-02-14T16:25:48.083Z,2.90
2023-02-14T16:28:16.409Z,2.80
2023-02-14T16:30:46.262Z,2.70
2023-02-14T16:33:19.385Z,2.50
2023-02-14T16:35:49.675Z,2.40
2023-02-14T16:38:20.074Z,2.30
2023-02-14T16:40:50.087Z,2.30
2023-02-14T16:43:19.567Z,2.20
2023-02-14T16:45:48.071Z,2.20
2023-02-14T16:48:16.672Z,2.10
2023-02-14T16:50:45.879Z,1.90
2023-02-14T16:53:25.796Z,1.80
2023-02-14T16:55:56.229Z,1.70
2023-02-14T16:58:28.545Z,1.60
2023-02-14T17:00:58.357Z,1.50
2023-02-14T17:03:26.446Z,1.40
2023-02-14T17:05:55.530Z,1.30
2023-02-14T17:08:25.819Z,1.20
2023-02-14T17:10:54.186Z,1.10
2023-02-14T17:13:24.934Z,1.00
2023-02-14T17:15:53.746Z,1.00
2023-02-14T17:18:23.946Z,0.90
2023-02-14T17:20:51.733Z,0.90
2023-02-14T17:23:20.140Z,0.90
2023-02-14T17:25:49.254Z,0.90
2023-02-14T17:28:17.024Z,0.90
2023-02-14T17:30:44.823Z,0.90
2023-02-14T17:33:13.413Z,1.00
2023-02-14T17:35:41.183Z,1.00
2023-02-14T17:38:09.244Z,1.00
2023-02-14T17:40:37.055Z,1.00
2023-02-14T17:43:06.180Z,1.00
2023-02-14T17:45:33.984Z,1.10
2023-02-14T17:48:02.559Z,1.10
2023-02-14T17:50:30.354Z,1.30
2023-02-14T17:52:58.825Z,1.30
2023-02-14T17:55:26.604Z,1.40
2023-02-14T17:57:54.399Z,1.50
2023-02-14T18:00:24.877Z,1.60
2023-02-14T18:02:52.647Z,1.70
2023-02-14T18:05:20.683Z,1.70
2023-02-14T18:07:48.505Z,1.80
2023-02-14T18:10:16.304Z,1.80
2023-02-14T18:12:44.099Z,1.80
2023-02-14T18:15:11.852Z,1.90
2023-02-14T18:17:41.180Z,1.90
2023-02-14T18:20:09.962Z,1.90
2023-02-14T18:22:37.734Z,1.90
2023-02-14T18:25:06.115Z,1.90
2023-02-14T18:27:33.874Z,1.90
2023-02-14T18:30:01.765Z,1.90
2023-02-14T18:32:29.603Z,1.90
2023-02-14T18:34:58.699Z,1.90
2023-02-14T18:37:26.471Z,1.90
2023-02-14T18:39:54.244Z,1.80
2023-02-14T18:42:22.014Z,1.80
2023-02-14T18:44:49.805Z,1.90
2023-02-14T18:47:17.664Z,1.80
2023-02-14T18:49:45.454Z,1.90
2023-02-14T18:52:14.567Z,1.80
2023-02-14T18:54:42.462Z,1.80
2023-02-14T18:57:10.256Z,1.80
2023-02-14T18:59:38.187Z,1.80
2023-02-14T19:02:06.002Z,1.80
2023-02-14T19:04:33.817Z,1.70
2023-02-14T19:07:04.295Z,1.70
2023-02-14T19:09:38.831Z,1.70
2023-02-14T19:12:07.173Z,1.70
2023-02-14T19:14:35.109Z,1.70
2023-02-14T19:17:03.560Z,1.70
2023-02-14T19:19:31.706Z,1.70
2023-02-14T19:22:00.201Z,1.70
2023-02-14T19:24:28.534Z,1.70
2023-02-14T19:26:57.688Z,1.70
2023-02-14T19:29:25.534Z,1.60
2023-02-14T19:31:57.777Z,1.60
2023-02-14T19:34:29.236Z,1.60
2023-02-14T19:36:59.490Z,1.50
2023-02-14T19:39:29.357Z,1.50
2023-02-14T19:41:59.509Z,1.50
2023-02-14T19:44:29.083Z,1.50
2023-02-14T19:46:59.833Z,1.50
2023-02-14T19:49:28.673Z,1.50
2023-02-14T19:51:57.584Z,1.50
2023-02-14T19:54:25.697Z,1.50
2023-02-14T19:56:55.906Z,1.40
2023-02-14T19:59:25.127Z,1.50
2023-02-14T20:01:54.514Z,1.40
2023-02-14T20:04:24.813Z,1.50
2023-02-14T20:06:53.634Z,1.50
2023-02-14T20:09:22.698Z,1.40
2023-02-14T20:11:54.076Z,1.40
2023-02-14T20:14:24.713Z,1.40
2023-02-14T20:16:55.635Z,1.30
2023-02-14T20:19:26.851Z,1.20
2023-02-14T20:21:54.779Z,1.20
2023-02-14T20:24:24.245Z,1.20
2023-02-14T20:26:52.772Z,1.20
2023-02-14T20:29:22.886Z,1.20
2023-02-14T20:31:54.035Z,1.30
2023-02-14T20:34:22.535Z,1.30
2023-02-14T20:36:53.051Z,1.30
2023-02-14T20:39:22.706Z,1.30
2023-02-14T20:41:50.758Z,1.30
2023-02-14T20:44:21.350Z,1.30
2023-02-14T20:46:49.683Z,1.30
2023-02-14T20:49:19.703Z,1.30
2023-02-14T20:51:49.491Z,1.30
2023-02-14T20:54:17.996Z,1.30
2023-02-14T20:56:45.939Z,1.30
2023-02-14T20:59:14.445Z,1.30
2023-02-14T21:01:42.507Z,1.30
2023-02-14T21:04:10.297Z,1.30
2023-02-14T21:06:40.188Z,1.20
2023-02-14T21:09:08.528Z,1.20
2023-02-14T21:11:36.631Z,1.20
2023-02-14T21:14:04.434Z,1.20
2023-02-14T21:16:32.326Z,1.10
2023-02-14T21:19:01.468Z,1.20
2023-02-14T21:21:34.684Z,1.10
2023-02-14T21:24:05.978Z,1.10
2023-02-14T21:26:33.912Z,1.10
2023-02-14T21:29:02.490Z,1.00
2023-02-14T21:31:30.814Z,1.00
2023-02-14T21:34:00.122Z,1.00
2023-02-14T21:36:29.781Z,1.00
2023-02-14T21:38:59.138Z,1.00
2023-02-14T21:41:30.735Z,1.00
2023-02-14T21:43:59.929Z,1.00
2023-02-14T21:46:30.651Z,1.00
2023-02-14T21:49:17.165Z,0.90
2023-02-14T21:51:45.649Z,1.00
2023-02-14T21:54:14.369Z,1.00
2023-02-14T21:56:45.290Z,1.00
2023-02-14T21:59:13.405Z,1.00
2023-02-14T22:01:42.460Z,1.00
2023-02-14T22:04:12.281Z,1.10
2023-02-14T22:06:41.844Z,1.00
2023-02-14T22:09:10.742Z,1.00
2023-02-14T22:11:38.759Z,1.00
2023-02-14T22:14:08.194Z,1.00
2023-02-14T22:16:36.693Z,1.00
2023-02-14T22:19:05.112Z,1.00
2023-02-14T22:21:33.370Z,1.00
2023-02-14T22:24:01.978Z,1.00
2023-02-14T22:26:33.558Z,1.00
2023-02-14T22:29:03.000Z,1.00
2023-02-14T22:31:36.019Z,1.00
2023-02-14T22:34:04.435Z,1.00
2023-02-14T22:36:32.260Z,0.90
2023-02-14T22:39:00.158Z,0.90
2023-02-14T22:41:28.330Z,0.90
2023-02-14T22:43:56.118Z,0.90
2023-02-14T22:46:25.667Z,0.90
2023-02-14T22:48:56.235Z,0.80
2023-02-14T22:51:25.775Z,0.80
2023-02-14T22:53:55.426Z,0.80
2023-02-14T22:56:24.754Z,0.80
2023-02-14T22:58:54.721Z,0.80
2023-02-14T23:01:23.330Z,0.90
2023-02-14T23:03:56.449Z,0.80
2023-02-14T23:06:24.736Z,0.80
2023-02-14T23:08:53.231Z,0.70
2023-02-14T23:11:23.227Z,0.70
2023-02-14T23:14:08.845Z,0.70
2023-02-14T23:16:54.309Z,0.80
2023-02-14T23:19:43.085Z,0.70
2023-02-14T23:22:13.668Z,0.70
2023-02-14T23:24:41.631Z,0.70
2023-02-14T23:27:10.373Z,0.60
2023-02-14T23:29:38.602Z,0.60
2023-02-14T23:32:07.487Z,0.50
2023-02-14T23:34:39.549Z,0.50
2023-02-14T23:37:08.129Z,0.50
2023-02-14T23:39:37.503Z,0.50
2023-02-14T23:42:06.376Z,0.50
2023-02-14T23:44:34.562Z,0.50
2023-02-14T23:47:05.291Z,0.50
2023-02-14T23:49:34.579Z,0.60
2023-02-14T23:52:04.822Z,0.50
2023-02-14T23:54:33.086Z,0.50
2023-02-14T23:57:00.857Z,0.60
2023-02-14T23:59:29.048Z,0.50
